Alkor — DBND — position and weather

sailwx.info

Track history (hours):
 
Tides and Currents Weather Stations Pressure Air Temp Water Temp Dewpoint Dewpoint Depression Visibility Wind Speed Wind Dir Waves Ship Positions

Oceanographic research ship Alkor (Germany)

Ship's website: http://www.briese.de/

Detailed information on ship capabilities available from University of Delaware's Ocean Information Center.

Last reported at 2017-Mar-25 03:15 UTC. Time now 2017-Mar-26 23:05 UTC.
Position N 54°20' E 010°09'.

Length 55 m; draft 4.2 m.

Type: Ship. MMSI: 211216512.

Date/timePositionNaut miles runAvg speedWind from/ knotsBaromVisibWave heightAir tempDewpointWater temp
2017-Mar-25 03:15N 54°20' E 010°09'0 0.0
2017-Mar-25 01:30N 54°20' E 010°09'0 0.0
2017-Mar-25 00:30N 54°20' E 010°09'0 0.0
2017-Mar-24 23:33N 54°20' E 010°09'0 0.0
2017-Mar-24 22:33N 54°20' E 010°09'6 0.5
2017-Mar-24 10:27N 54°25' E 010°12'1 0.9
2017-Mar-24 09:33N 54°24' E 010°13'5 1.0
2017-Mar-24 04:23N 54°20' E 010°09'  
2017-Mar-15 18:03N 54°37' E 010°20'4 8.8
2017-Mar-15 17:33N 54°41' E 010°23'0 0.4
2017-Mar-15 16:33N 54°42' E 010°22'3 3.1
2017-Mar-15 15:26N 54°42' E 010°16'2 2.1
2017-Mar-15 14:28N 54°42' E 010°20'2 2.1
2017-Mar-15 13:33N 54°42' E 010°23'1 1.1
2017-Mar-15 12:26N 54°42' E 010°21'  
Track history (hours):
 
Tides and Currents Weather Stations Pressure Air Temp Water Temp Dewpoint Dewpoint Depression Visibility Wind Speed Wind Dir Waves Ship Positions

Oceanographic research ship Alkor (Germany)

Ship's website: http://www.briese.de/

Detailed information on ship capabilities available from University of Delaware's Ocean Information Center.

Last reported at 2017-Mar-25 03:15 UTC. Time now 2017-Mar-26 23:05 UTC.
Position N 54°20' E 010°09'.

Length 55 m; draft 4.2 m.

Type: Ship. MMSI: 211216512.

Date/timePositionNaut miles runAvg speedWind from/ knotsBaromVisibWave heightAir tempDewpointWater temp
2017-Mar-25 03:15N 54°20' E 010°09'0 0.0
2017-Mar-25 01:30N 54°20' E 010°09'0 0.0
2017-Mar-25 00:30N 54°20' E 010°09'0 0.0
2017-Mar-24 23:33N 54°20' E 010°09'0 0.0
2017-Mar-24 22:33N 54°20' E 010°09'6 0.5
2017-Mar-24 10:27N 54°25' E 010°12'1 0.9
2017-Mar-24 09:33N 54°24' E 010°13'5 1.0
2017-Mar-24 04:23N 54°20' E 010°09'  
2017-Mar-15 18:03N 54°37' E 010°20'4 8.8
2017-Mar-15 17:33N 54°41' E 010°23'0 0.4
2017-Mar-15 16:33N 54°42' E 010°22'3 3.1
2017-Mar-15 15:26N 54°42' E 010°16'2 2.1
2017-Mar-15 14:28N 54°42' E 010°20'2 2.1
2017-Mar-15 13:33N 54°42' E 010°23'1 1.1
2017-Mar-15 12:26N 54°42' E 010°21'  

Dump ship's entire track history